sensor_id;sensor_type;location;lat;lon;timestamp;P1;durP1;ratioP1;P2;durP2;ratioP2
20421;SDS011;10370;53.102;18.034;2023-07-16T00:04:54;13.45;;;8.23;;
20421;SDS011;10370;53.102;18.034;2023-07-16T00:10:22;16.08;;;8.85;;
20421;SDS011;10370;53.102;18.034;2023-07-16T00:15:48;12.20;;;8.23;;
20421;SDS011;10370;53.102;18.034;2023-07-16T00:21:11;11.90;;;8.88;;
20421;SDS011;10370;53.102;18.034;2023-07-16T00:26:39;17.90;;;8.43;;
20421;SDS011;10370;53.102;18.034;2023-07-16T00:32:02;18.92;;;8.82;;
20421;SDS011;10370;53.102;18.034;2023-07-16T00:37:25;14.20;;;8.32;;
20421;SDS011;10370;53.102;18.034;2023-07-16T00:42:51;19.02;;;9.07;;
20421;SDS011;10370;53.102;18.034;2023-07-16T00:48:13;12.45;;;8.35;;
20421;SDS011;10370;53.102;18.034;2023-07-16T00:53:37;17.02;;;9.27;;
20421;SDS011;10370;53.102;18.034;2023-07-16T00:59:04;16.73;;;8.98;;
20421;SDS011;10370;53.102;18.034;2023-07-16T01:04:27;16.15;;;9.23;;
20421;SDS011;10370;53.102;18.034;2023-07-16T01:09:51;12.70;;;9.00;;
20421;SDS011;10370;53.102;18.034;2023-07-16T01:15:19;13.20;;;9.30;;
20421;SDS011;10370;53.102;18.034;2023-07-16T01:20:42;13.55;;;8.80;;
20421;SDS011;10370;53.102;18.034;2023-07-16T01:26:08;16.75;;;8.77;;
20421;SDS011;10370;53.102;18.034;2023-07-16T01:31:46;17.90;;;9.60;;
20421;SDS011;10370;53.102;18.034;2023-07-16T01:37:16;14.63;;;9.77;;
20421;SDS011;10370;53.102;18.034;2023-07-16T01:42:39;13.20;;;9.45;;
20421;SDS011;10370;53.102;18.034;2023-07-16T01:53:51;13.77;;;9.48;;
20421;SDS011;10370;53.102;18.034;2023-07-16T01:59:14;14.45;;;9.88;;
20421;SDS011;10370;53.102;18.034;2023-07-16T02:04:37;16.48;;;9.85;;
20421;SDS011;10370;53.102;18.034;2023-07-16T02:10:01;13.88;;;10.10;;
20421;SDS011;10370;53.102;18.034;2023-07-16T02:15:24;18.23;;;10.10;;
20421;SDS011;10370;53.102;18.034;2023-07-16T02:21:03;16.08;;;10.20;;
20421;SDS011;10370;53.102;18.034;2023-07-16T02:26:26;16.70;;;10.45;;
20421;SDS011;10370;53.102;18.034;2023-07-16T02:31:50;18.35;;;10.50;;
20421;SDS011;10370;53.102;18.034;2023-07-16T02:37:14;16.00;;;10.30;;
20421;SDS011;10370;53.102;18.034;2023-07-16T02:42:37;15.80;;;10.65;;
20421;SDS011;10370;53.102;18.034;2023-07-16T02:48:00;17.58;;;10.70;;
20421;SDS011;10370;53.102;18.034;2023-07-16T02:53:27;13.60;;;10.73;;
20421;SDS011;10370;53.102;18.034;2023-07-16T02:58:50;17.38;;;11.82;;
20421;SDS011;10370;53.102;18.034;2023-07-16T03:04:14;15.15;;;10.80;;
20421;SDS011;10370;53.102;18.034;2023-07-16T03:09:37;17.50;;;11.73;;
20421;SDS011;10370;53.102;18.034;2023-07-16T03:14:59;15.63;;;11.55;;
20421;SDS011;10370;53.102;18.034;2023-07-16T03:20:23;17.98;;;11.10;;
20421;SDS011;10370;53.102;18.034;2023-07-16T03:25:46;18.40;;;10.70;;
20421;SDS011;10370;53.102;18.034;2023-07-16T03:31:09;16.77;;;11.38;;
20421;SDS011;10370;53.102;18.034;2023-07-16T03:36:36;16.90;;;10.70;;
20421;SDS011;10370;53.102;18.034;2023-07-16T03:42:02;15.20;;;10.88;;
20421;SDS011;10370;53.102;18.034;2023-07-16T03:47:26;15.55;;;10.00;;
20421;SDS011;10370;53.102;18.034;2023-07-16T03:52:49;18.63;;;10.55;;
20421;SDS011;10370;53.102;18.034;2023-07-16T03:58:16;15.20;;;10.40;;
20421;SDS011;10370;53.102;18.034;2023-07-16T04:03:40;18.98;;;10.63;;
20421;SDS011;10370;53.102;18.034;2023-07-16T04:09:03;18.15;;;10.63;;
20421;SDS011;10370;53.102;18.034;2023-07-16T04:14:26;17.63;;;9.90;;
20421;SDS011;10370;53.102;18.034;2023-07-16T04:19:49;17.08;;;10.80;;
20421;SDS011;10370;53.102;18.034;2023-07-16T04:25:12;15.10;;;10.35;;
20421;SDS011;10370;53.102;18.034;2023-07-16T04:30:36;19.80;;;9.85;;
20421;SDS011;10370;53.102;18.034;2023-07-16T04:36:03;15.70;;;10.18;;
20421;SDS011;10370;53.102;18.034;2023-07-16T04:41:26;14.93;;;10.30;;
20421;SDS011;10370;53.102;18.034;2023-07-16T04:46:50;15.27;;;10.65;;
20421;SDS011;10370;53.102;18.034;2023-07-16T04:52:16;13.63;;;10.30;;
20421;SDS011;10370;53.102;18.034;2023-07-16T04:57:41;12.38;;;9.60;;
20421;SDS011;10370;53.102;18.034;2023-07-16T05:03:04;12.52;;;9.10;;
20421;SDS011;10370;53.102;18.034;2023-07-16T05:08:27;11.60;;;8.52;;
20421;SDS011;10370;53.102;18.034;2023-07-16T05:13:50;9.23;;;6.82;;
20421;SDS011;10370;53.102;18.034;2023-07-16T05:19:14;9.15;;;6.70;;
20421;SDS011;10370;53.102;18.034;2023-07-16T05:24:37;7.87;;;5.33;;
20421;SDS011;10370;53.102;18.034;2023-07-16T05:30:01;5.80;;;4.70;;
20421;SDS011;10370;53.102;18.034;2023-07-16T05:35:27;10.07;;;4.72;;
20421;SDS011;10370;53.102;18.034;2023-07-16T05:41:08;12.00;;;4.60;;
20421;SDS011;10370;53.102;18.034;2023-07-16T05:46:32;6.43;;;4.30;;
20421;SDS011;10370;53.102;18.034;2023-07-16T05:51:56;5.20;;;4.13;;
20421;SDS011;10370;53.102;18.034;2023-07-16T05:57:20;6.97;;;4.43;;
20421;SDS011;10370;53.102;18.034;2023-07-16T06:02:43;8.07;;;4.32;;
20421;SDS011;10370;53.102;18.034;2023-07-16T06:08:06;5.13;;;4.28;;
20421;SDS011;10370;53.102;18.034;2023-07-16T06:13:33;8.30;;;5.13;;
20421;SDS011;10370;53.102;18.034;2023-07-16T06:18:59;8.90;;;5.30;;
20421;SDS011;10370;53.102;18.034;2023-07-16T06:24:26;7.05;;;5.50;;
20421;SDS011;10370;53.102;18.034;2023-07-16T06:29:57;9.70;;;5.57;;
20421;SDS011;10370;53.102;18.034;2023-07-16T06:35:23;18.25;;;5.93;;
20421;SDS011;10370;53.102;18.034;2023-07-16T06:40:50;6.30;;;5.10;;
20421;SDS011;10370;53.102;18.034;2023-07-16T06:46:14;6.32;;;4.85;;
20421;SDS011;10370;53.102;18.034;2023-07-16T06:51:37;8.77;;;5.03;;
20421;SDS011;10370;53.102;18.034;2023-07-16T06:57:06;9.32;;;5.50;;
20421;SDS011;10370;53.102;18.034;2023-07-16T07:02:34;8.68;;;5.40;;
20421;SDS011;10370;53.102;18.034;2023-07-16T07:07:57;6.97;;;5.40;;
20421;SDS011;10370;53.102;18.034;2023-07-16T07:13:20;5.72;;;4.80;;
20421;SDS011;10370;53.102;18.034;2023-07-16T07:18:46;5.97;;;5.05;;
20421;SDS011;10370;53.102;18.034;2023-07-16T07:24:10;8.38;;;4.97;;
20421;SDS011;10370;53.102;18.034;2023-07-16T07:29:33;9.70;;;5.10;;
20421;SDS011;10370;53.102;18.034;2023-07-16T07:34:59;11.85;;;4.93;;
20421;SDS011;10370;53.102;18.034;2023-07-16T07:40:27;5.25;;;4.50;;
20421;SDS011;10370;53.102;18.034;2023-07-16T07:45:51;4.75;;;4.18;;
20421;SDS011;10370;53.102;18.034;2023-07-16T07:51:13;4.47;;;4.05;;
20421;SDS011;10370;53.102;18.034;2023-07-16T07:56:39;6.07;;;4.10;;
20421;SDS011;10370;53.102;18.034;2023-07-16T08:02:03;5.63;;;3.80;;
20421;SDS011;10370;53.102;18.034;2023-07-16T08:07:26;5.03;;;3.30;;
20421;SDS011;10370;53.102;18.034;2023-07-16T08:12:50;5.88;;;3.22;;
20421;SDS011;10370;53.102;18.034;2023-07-16T08:18:20;2.97;;;2.08;;
20421;SDS011;10370;53.102;18.034;2023-07-16T08:23:44;9.73;;;2.50;;
20421;SDS011;10370;53.102;18.034;2023-07-16T08:29:10;6.93;;;2.30;;
20421;SDS011;10370;53.102;18.034;2023-07-16T08:34:36;5.55;;;2.63;;
20421;SDS011;10370;53.102;18.034;2023-07-16T08:40:03;7.35;;;2.28;;
20421;SDS011;10370;53.102;18.034;2023-07-16T08:45:27;5.50;;;2.20;;
20421;SDS011;10370;53.102;18.034;2023-07-16T08:50:55;5.57;;;2.30;;
20421;SDS011;10370;53.102;18.034;2023-07-16T08:56:20;4.55;;;2.00;;
20421;SDS011;10370;53.102;18.034;2023-07-16T09:01:44;5.07;;;2.30;;
20421;SDS011;10370;53.102;18.034;2023-07-16T09:07:10;3.53;;;2.00;;
20421;SDS011;10370;53.102;18.034;2023-07-16T09:12:41;4.43;;;1.95;;
20421;SDS011;10370;53.102;18.034;2023-07-16T09:18:08;2.75;;;1.92;;
20421;SDS011;10370;53.102;18.034;2023-07-16T09:23:33;3.70;;;1.85;;
20421;SDS011;10370;53.102;18.034;2023-07-16T09:28:56;2.90;;;2.10;;
20421;SDS011;10370;53.102;18.034;2023-07-16T09:34:22;3.75;;;2.03;;
20421;SDS011;10370;53.102;18.034;2023-07-16T09:39:46;6.25;;;2.53;;
20421;SDS011;10370;53.102;18.034;2023-07-16T09:45:17;4.57;;;2.03;;
20421;SDS011;10370;53.102;18.034;2023-07-16T09:50:44;5.82;;;3.15;;
20421;SDS011;10370;53.102;18.034;2023-07-16T09:56:17;5.03;;;2.63;;
20421;SDS011;10370;53.102;18.034;2023-07-16T10:01:42;4.05;;;2.60;;
20421;SDS011;10370;53.102;18.034;2023-07-16T10:07:05;6.05;;;2.92;;
20421;SDS011;10370;53.102;18.034;2023-07-16T10:12:34;3.33;;;2.90;;
20421;SDS011;10370;53.102;18.034;2023-07-16T10:17:58;2.90;;;2.60;;
20421;SDS011;10370;53.102;18.034;2023-07-16T10:23:21;4.47;;;3.08;;
20421;SDS011;10370;53.102;18.034;2023-07-16T10:28:44;7.43;;;3.13;;
20421;SDS011;10370;53.102;18.034;2023-07-16T10:34:09;3.50;;;2.95;;
20421;SDS011;10370;53.102;18.034;2023-07-16T10:39:32;5.55;;;3.17;;
20421;SDS011;10370;53.102;18.034;2023-07-16T10:44:59;3.90;;;2.97;;
20421;SDS011;10370;53.102;18.034;2023-07-16T10:50:24;6.13;;;3.50;;
20421;SDS011;10370;53.102;18.034;2023-07-16T10:55:47;3.63;;;3.28;;
20421;SDS011;10370;53.102;18.034;2023-07-16T11:01:11;5.80;;;3.60;;
20421;SDS011;10370;53.102;18.034;2023-07-16T11:06:34;5.10;;;3.40;;
20421;SDS011;10370;53.102;18.034;2023-07-16T11:12:43;5.93;;;3.88;;
20421;SDS011;10370;53.102;18.034;2023-07-16T11:18:07;4.60;;;4.13;;
20421;SDS011;10370;53.102;18.034;2023-07-16T11:23:34;4.93;;;4.10;;
20421;SDS011;10370;53.102;18.034;2023-07-16T11:28:58;7.22;;;3.90;;
20421;SDS011;10370;53.102;18.034;2023-07-16T11:34:30;3.83;;;3.28;;
20421;SDS011;10370;53.102;18.034;2023-07-16T11:39:55;4.55;;;3.90;;
20421;SDS011;10370;53.102;18.034;2023-07-16T11:45:24;5.53;;;3.60;;
20421;SDS011;10370;53.102;18.034;2023-07-16T11:50:51;4.70;;;3.55;;
20421;SDS011;10370;53.102;18.034;2023-07-16T11:56:18;5.65;;;3.70;;
20421;SDS011;10370;53.102;18.034;2023-07-16T12:01:42;4.03;;;3.63;;
20421;SDS011;10370;53.102;18.034;2023-07-16T12:07:05;3.67;;;3.38;;
20421;SDS011;10370;53.102;18.034;2023-07-16T12:18:24;3.88;;;2.80;;
20421;SDS011;10370;53.102;18.034;2023-07-16T12:23:53;3.03;;;2.50;;
20421;SDS011;10370;53.102;18.034;2023-07-16T12:29:17;3.22;;;2.90;;
20421;SDS011;10370;53.102;18.034;2023-07-16T12:34:43;4.65;;;2.88;;
20421;SDS011;10370;53.102;18.034;2023-07-16T12:40:10;6.32;;;3.00;;
20421;SDS011;10370;53.102;18.034;2023-07-16T12:45:34;3.80;;;2.60;;
20421;SDS011;10370;53.102;18.034;2023-07-16T12:50:57;4.47;;;2.75;;
20421;SDS011;10370;53.102;18.034;2023-07-16T12:56:21;3.13;;;2.45;;
20421;SDS011;10370;53.102;18.034;2023-07-16T13:01:52;4.35;;;2.72;;
20421;SDS011;10370;53.102;18.034;2023-07-16T13:07:15;4.00;;;2.72;;
20421;SDS011;10370;53.102;18.034;2023-07-16T13:12:42;4.63;;;2.90;;
20421;SDS011;10370;53.102;18.034;2023-07-16T13:18:08;3.72;;;2.53;;
20421;SDS011;10370;53.102;18.034;2023-07-16T13:23:32;4.50;;;2.63;;
20421;SDS011;10370;53.102;18.034;2023-07-16T13:28:56;2.92;;;2.63;;
20421;SDS011;10370;53.102;18.034;2023-07-16T13:34:19;3.67;;;2.70;;
20421;SDS011;10370;53.102;18.034;2023-07-16T13:39:42;3.03;;;2.45;;
20421;SDS011;10370;53.102;18.034;2023-07-16T13:45:05;2.63;;;2.42;;
20421;SDS011;10370;53.102;18.034;2023-07-16T13:50:29;6.72;;;2.78;;
20421;SDS011;10370;53.102;18.034;2023-07-16T13:55:53;3.78;;;2.88;;
20421;SDS011;10370;53.102;18.034;2023-07-16T14:01:16;2.85;;;2.30;;
20421;SDS011;10370;53.102;18.034;2023-07-16T14:06:41;3.40;;;2.80;;
20421;SDS011;10370;53.102;18.034;2023-07-16T14:12:04;4.78;;;3.15;;
20421;SDS011;10370;53.102;18.034;2023-07-16T14:17:27;3.30;;;3.00;;
20421;SDS011;10370;53.102;18.034;2023-07-16T14:22:50;5.07;;;3.15;;
20421;SDS011;10370;53.102;18.034;2023-07-16T14:28:16;3.15;;;2.85;;
20421;SDS011;10370;53.102;18.034;2023-07-16T14:33:43;4.88;;;3.05;;
20421;SDS011;10370;53.102;18.034;2023-07-16T14:39:06;3.33;;;3.03;;
20421;SDS011;10370;53.102;18.034;2023-07-16T14:44:29;3.63;;;3.20;;
20421;SDS011;10370;53.102;18.034;2023-07-16T14:49:53;4.43;;;3.03;;
20421;SDS011;10370;53.102;18.034;2023-07-16T14:55:18;10.95;;;3.03;;
20421;SDS011;10370;53.102;18.034;2023-07-16T15:00:41;4.30;;;2.67;;
20421;SDS011;10370;53.102;18.034;2023-07-16T15:06:07;3.45;;;2.70;;
20421;SDS011;10370;53.102;18.034;2023-07-16T15:11:30;2.88;;;2.50;;
20421;SDS011;10370;53.102;18.034;2023-07-16T15:16:55;2.90;;;2.60;;
20421;SDS011;10370;53.102;18.034;2023-07-16T15:22:19;3.53;;;2.55;;
20421;SDS011;10370;53.102;18.034;2023-07-16T15:27:43;3.22;;;2.75;;
20421;SDS011;10370;53.102;18.034;2023-07-16T15:33:06;2.38;;;2.17;;
20421;SDS011;10370;53.102;18.034;2023-07-16T15:38:30;2.30;;;2.03;;
20421;SDS011;10370;53.102;18.034;2023-07-16T15:43:53;3.15;;;2.50;;
20421;SDS011;10370;53.102;18.034;2023-07-16T15:49:17;4.22;;;2.30;;
20421;SDS011;10370;53.102;18.034;2023-07-16T15:54:41;4.85;;;2.38;;
20421;SDS011;10370;53.102;18.034;2023-07-16T16:00:04;8.82;;;2.70;;
20421;SDS011;10370;53.102;18.034;2023-07-16T16:05:36;3.28;;;2.42;;
20421;SDS011;10370;53.102;18.034;2023-07-16T16:11:03;2.72;;;2.53;;
20421;SDS011;10370;53.102;18.034;2023-07-16T16:16:26;6.57;;;2.70;;
20421;SDS011;10370;53.102;18.034;2023-07-16T16:21:52;3.35;;;2.58;;
20421;SDS011;10370;53.102;18.034;2023-07-16T16:27:23;5.55;;;3.20;;
20421;SDS011;10370;53.102;18.034;2023-07-16T16:32:46;3.55;;;2.72;;
20421;SDS011;10370;53.102;18.034;2023-07-16T16:38:11;2.45;;;1.98;;
20421;SDS011;10370;53.102;18.034;2023-07-16T16:43:37;2.70;;;2.47;;
20421;SDS011;10370;53.102;18.034;2023-07-16T16:49:00;3.83;;;2.55;;
20421;SDS011;10370;53.102;18.034;2023-07-16T16:54:27;4.80;;;2.42;;
20421;SDS011;10370;53.102;18.034;2023-07-16T16:59:53;2.92;;;2.58;;
20421;SDS011;10370;53.102;18.034;2023-07-16T17:05:16;4.75;;;2.60;;
20421;SDS011;10370;53.102;18.034;2023-07-16T17:10:40;4.82;;;2.63;;
20421;SDS011;10370;53.102;18.034;2023-07-16T17:16:08;5.70;;;2.65;;
20421;SDS011;10370;53.102;18.034;2023-07-16T17:21:42;3.97;;;2.90;;
20421;SDS011;10370;53.102;18.034;2023-07-16T17:27:10;2.85;;;2.55;;
20421;SDS011;10370;53.102;18.034;2023-07-16T17:32:41;4.13;;;2.67;;
20421;SDS011;10370;53.102;18.034;2023-07-16T17:38:05;5.28;;;2.53;;
20421;SDS011;10370;53.102;18.034;2023-07-16T17:43:29;5.68;;;2.72;;
20421;SDS011;10370;53.102;18.034;2023-07-16T17:48:58;5.00;;;2.60;;
20421;SDS011;10370;53.102;18.034;2023-07-16T17:54:26;5.47;;;2.92;;
20421;SDS011;10370;53.102;18.034;2023-07-16T17:59:50;7.20;;;3.05;;
20421;SDS011;10370;53.102;18.034;2023-07-16T18:05:13;3.63;;;2.92;;
20421;SDS011;10370;53.102;18.034;2023-07-16T18:10:36;3.15;;;2.70;;
20421;SDS011;10370;53.102;18.034;2023-07-16T18:15:59;3.47;;;2.72;;
20421;SDS011;10370;53.102;18.034;2023-07-16T18:21:23;4.20;;;3.03;;
20421;SDS011;10370;53.102;18.034;2023-07-16T18:26:51;6.70;;;3.10;;
20421;SDS011;10370;53.102;18.034;2023-07-16T18:32:16;3.90;;;2.83;;
20421;SDS011;10370;53.102;18.034;2023-07-16T18:37:43;6.35;;;2.78;;
20421;SDS011;10370;53.102;18.034;2023-07-16T18:43:07;8.63;;;3.30;;
20421;SDS011;10370;53.102;18.034;2023-07-16T18:48:31;5.80;;;3.53;;
20421;SDS011;10370;53.102;18.034;2023-07-16T18:53:56;11.30;;;3.08;;
20421;SDS011;10370;53.102;18.034;2023-07-16T18:59:22;6.55;;;3.33;;
20421;SDS011;10370;53.102;18.034;2023-07-16T19:04:46;8.73;;;3.72;;
20421;SDS011;10370;53.102;18.034;2023-07-16T19:10:10;13.10;;;3.47;;
20421;SDS011;10370;53.102;18.034;2023-07-16T19:15:32;5.63;;;3.70;;
20421;SDS011;10370;53.102;18.034;2023-07-16T19:20:55;7.85;;;3.60;;
20421;SDS011;10370;53.102;18.034;2023-07-16T19:26:18;4.13;;;3.35;;
20421;SDS011;10370;53.102;18.034;2023-07-16T19:31:43;6.25;;;3.50;;
20421;SDS011;10370;53.102;18.034;2023-07-16T19:37:06;8.65;;;3.42;;
20421;SDS011;10370;53.102;18.034;2023-07-16T19:42:30;10.35;;;3.67;;
20421;SDS011;10370;53.102;18.034;2023-07-16T19:47:53;8.98;;;3.95;;
20421;SDS011;10370;53.102;18.034;2023-07-16T19:53:19;4.53;;;3.45;;
20421;SDS011;10370;53.102;18.034;2023-07-16T19:58:42;8.35;;;3.85;;
20421;SDS011;10370;53.102;18.034;2023-07-16T20:04:04;5.82;;;3.67;;
20421;SDS011;10370;53.102;18.034;2023-07-16T20:09:30;5.63;;;3.80;;
20421;SDS011;10370;53.102;18.034;2023-07-16T20:14:55;7.35;;;4.00;;
20421;SDS011;10370;53.102;18.034;2023-07-16T20:20:24;11.18;;;4.10;;
20421;SDS011;10370;53.102;18.034;2023-07-16T20:25:50;8.02;;;4.40;;
20421;SDS011;10370;53.102;18.034;2023-07-16T20:31:13;7.30;;;4.10;;
20421;SDS011;10370;53.102;18.034;2023-07-16T20:36:42;19.90;;;5.40;;
20421;SDS011;10370;53.102;18.034;2023-07-16T20:42:05;7.22;;;4.13;;
20421;SDS011;10370;53.102;18.034;2023-07-16T20:47:30;8.48;;;4.53;;
20421;SDS011;10370;53.102;18.034;2023-07-16T20:52:57;10.50;;;4.25;;
20421;SDS011;10370;53.102;18.034;2023-07-16T20:58:22;8.13;;;4.28;;
20421;SDS011;10370;53.102;18.034;2023-07-16T21:03:51;7.10;;;4.68;;
20421;SDS011;10370;53.102;18.034;2023-07-16T21:09:15;6.63;;;4.43;;
20421;SDS011;10370;53.102;18.034;2023-07-16T21:14:37;6.07;;;4.53;;
20421;SDS011;10370;53.102;18.034;2023-07-16T21:20:00;8.70;;;5.03;;
20421;SDS011;10370;53.102;18.034;2023-07-16T21:25:25;6.30;;;4.32;;
20421;SDS011;10370;53.102;18.034;2023-07-16T21:30:57;9.23;;;4.75;;
20421;SDS011;10370;53.102;18.034;2023-07-16T21:36:22;8.23;;;5.20;;
20421;SDS011;10370;53.102;18.034;2023-07-16T21:41:50;14.57;;;5.53;;
20421;SDS011;10370;53.102;18.034;2023-07-16T21:47:13;26.20;;;7.35;;
20421;SDS011;10370;53.102;18.034;2023-07-16T21:52:36;41.35;;;9.88;;
20421;SDS011;10370;53.102;18.034;2023-07-16T21:58:01;21.77;;;7.82;;
20421;SDS011;10370;53.102;18.034;2023-07-16T22:03:26;16.13;;;7.45;;
20421;SDS011;10370;53.102;18.034;2023-07-16T22:08:48;13.35;;;6.43;;
20421;SDS011;10370;53.102;18.034;2023-07-16T22:14:11;19.20;;;7.85;;
20421;SDS011;10370;53.102;18.034;2023-07-16T22:19:35;15.13;;;7.45;;
20421;SDS011;10370;53.102;18.034;2023-07-16T22:24:58;19.27;;;7.93;;
20421;SDS011;10370;53.102;18.034;2023-07-16T22:30:21;14.43;;;7.43;;
20421;SDS011;10370;53.102;18.034;2023-07-16T22:35:47;12.20;;;6.55;;
20421;SDS011;10370;53.102;18.034;2023-07-16T22:41:09;12.77;;;7.55;;
20421;SDS011;10370;53.102;18.034;2023-07-16T22:46:33;12.18;;;8.55;;
20421;SDS011;10370;53.102;18.034;2023-07-16T22:51:58;13.50;;;7.88;;
20421;SDS011;10370;53.102;18.034;2023-07-16T22:57:21;16.10;;;9.45;;
20421;SDS011;10370;53.102;18.034;2023-07-16T23:02:46;16.70;;;9.65;;
20421;SDS011;10370;53.102;18.034;2023-07-16T23:08:09;15.30;;;10.55;;
20421;SDS011;10370;53.102;18.034;2023-07-16T23:13:32;14.38;;;10.15;;
20421;SDS011;10370;53.102;18.034;2023-07-16T23:18:57;13.98;;;10.07;;
20421;SDS011;10370;53.102;18.034;2023-07-16T23:24:24;15.63;;;9.50;;
20421;SDS011;10370;53.102;18.034;2023-07-16T23:29:46;14.18;;;9.02;;
20421;SDS011;10370;53.102;18.034;2023-07-16T23:35:10;12.77;;;8.77;;
20421;SDS011;10370;53.102;18.034;2023-07-16T23:40:34;14.95;;;8.38;;
20421;SDS011;10370;53.102;18.034;2023-07-16T23:46:00;15.55;;;8.63;;
20421;SDS011;10370;53.102;18.034;2023-07-16T23:51:24;10.23;;;7.85;;
20421;SDS011;10370;53.102;18.034;2023-07-16T23:56:50;18.50;;;8.50;;
